createdAt,value
2022-08-05T00:00:00.822Z,23.1
2022-08-05T00:03:00.647Z,23.1
2022-08-05T00:06:22.280Z,23.1
2022-08-05T00:09:01.102Z,23.1
2022-08-05T00:12:00.656Z,23.1
2022-08-05T00:15:54.695Z,23.1
2022-08-05T00:18:02.510Z,23.1
2022-08-05T00:21:00.653Z,23
2022-08-05T00:24:11.155Z,23
2022-08-05T00:27:00.702Z,23
2022-08-05T00:30:03.505Z,22.9
2022-08-05T00:33:00.713Z,22.9
2022-08-05T00:37:12.072Z,22.4
2022-08-05T00:39:00.732Z,22.4
2022-08-05T00:42:00.646Z,22
2022-08-05T00:45:00.652Z,21.8
2022-08-05T00:48:06.305Z,21.7
2022-08-05T00:51:00.684Z,21.7
2022-08-05T00:54:03.296Z,21.7
2022-08-05T00:57:00.642Z,21.7
2022-08-05T01:00:00.714Z,21.8
2022-08-05T01:03:00.665Z,21.8
2022-08-05T01:06:00.702Z,21.8
2022-08-05T01:09:00.657Z,21.8
2022-08-05T01:12:04.908Z,21.8
2022-08-05T01:15:05.131Z,21.8
2022-08-05T01:18:00.610Z,21.8
2022-08-05T01:21:00.621Z,21.8
2022-08-05T01:24:01.131Z,21.8
2022-08-05T01:27:00.657Z,21.8
2022-08-05T01:30:00.672Z,21.8
2022-08-05T01:33:00.797Z,21.8
2022-08-05T01:36:00.703Z,21.3
2022-08-05T01:39:01.475Z,21.3
2022-08-05T01:42:00.709Z,21.3
2022-08-05T01:45:03.161Z,21.3
2022-08-05T01:48:00.672Z,21.2
2022-08-05T01:51:00.655Z,21.2
2022-08-05T01:54:02.243Z,21.2
2022-08-05T02:00:00.699Z,21.2
2022-08-05T02:03:00.655Z,21.2
2022-08-05T02:06:03.498Z,21.2
2022-08-05T02:09:00.756Z,21.2
2022-08-05T02:12:00.674Z,21.2
2022-08-05T02:15:00.682Z,21.2
2022-08-05T02:18:34.525Z,21.2
2022-08-05T02:21:00.631Z,21.2
2022-08-05T02:24:00.729Z,21.2
2022-08-05T02:27:00.737Z,21.2
2022-08-05T02:30:01.146Z,21.2
2022-08-05T02:33:00.690Z,21.1
2022-08-05T02:36:01.482Z,21.1
2022-08-05T02:39:00.748Z,21.1
2022-08-05T02:42:01.781Z,21.2
2022-08-05T02:45:00.610Z,21.2
2022-08-05T02:48:12.224Z,21.2
2022-08-05T02:51:00.718Z,21.2
2022-08-05T02:54:03.540Z,21.2
2022-08-05T02:57:00.625Z,21.2
2022-08-05T03:00:00.663Z,21.2
2022-08-05T03:03:00.626Z,21.2
2022-08-05T03:06:59.076Z,21.2
2022-08-05T03:09:00.670Z,21.2
2022-08-05T03:12:01.984Z,21.2
2022-08-05T03:15:00.749Z,20.8
2022-08-05T03:18:00.665Z,20.8
2022-08-05T03:21:00.707Z,20.8
2022-08-05T03:24:00.696Z,20.8
2022-08-05T03:27:00.695Z,20.8
2022-08-05T03:30:09.029Z,20.4
2022-08-05T03:33:00.631Z,20.5
2022-08-05T03:36:00.614Z,20.5
2022-08-05T03:39:01.128Z,20.5
2022-08-05T03:42:00.771Z,20.6
2022-08-05T03:45:03.455Z,20.6
2022-08-05T03:48:00.644Z,20.6
2022-08-05T03:57:00.699Z,20.6
2022-08-05T04:00:01.859Z,20.6
2022-08-05T04:03:00.665Z,20.6
2022-08-05T04:06:00.629Z,20.6
2022-08-05T04:09:00.716Z,20.6
2022-08-05T04:12:00.650Z,20.6
2022-08-05T04:15:00.670Z,20.6
2022-08-05T04:18:00.820Z,20.6
2022-08-05T04:21:00.727Z,20.6
2022-08-05T04:24:07.082Z,20.6
2022-08-05T04:27:00.630Z,20.6
2022-08-05T04:30:04.009Z,20.6
2022-08-05T04:33:00.692Z,20.6
2022-08-05T04:36:16.009Z,20.6
2022-08-05T04:39:00.878Z,20.6
2022-08-05T04:42:01.744Z,20.6
2022-08-05T04:45:01.180Z,20.7
2022-08-05T04:48:00.730Z,20.7
2022-08-05T04:51:11.274Z,20.7
2022-08-05T04:54:01.452Z,20.7
2022-08-05T04:57:00.619Z,20.7
2022-08-05T05:00:00.742Z,20.7
2022-08-05T05:03:04.187Z,20.7
2022-08-05T05:06:40.854Z,20.7
2022-08-05T05:09:00.846Z,20.6
2022-08-05T05:12:03.252Z,20.6
2022-08-05T05:15:04.031Z,20.6
2022-08-05T05:18:01.261Z,20.6
2022-08-05T05:21:00.669Z,20.6
2022-08-05T05:24:04.380Z,20.6
2022-08-05T05:27:00.641Z,20.6
2022-08-05T05:30:05.240Z,20.6
2022-08-05T05:33:09.263Z,20.6
2022-08-05T05:36:00.689Z,20.6
2022-08-05T05:39:00.855Z,20.8
2022-08-05T05:42:00.722Z,20.8
2022-08-05T05:45:00.663Z,20.8
2022-08-05T05:48:08.016Z,20.8
2022-08-05T05:51:16.071Z,20.8
2022-08-05T05:54:00.731Z,20.8
2022-08-05T05:57:00.671Z,20.8
2022-08-05T06:00:00.737Z,20.8
2022-08-05T06:03:00.635Z,21
2022-08-05T06:06:00.650Z,21
2022-08-05T06:09:00.656Z,21.1
2022-08-05T06:12:02.966Z,21.1
2022-08-05T06:15:01.237Z,21.1
2022-08-05T06:18:00.703Z,21.1
2022-08-05T06:21:00.649Z,21.2
2022-08-05T06:24:00.665Z,21.2
2022-08-05T06:27:00.624Z,21.2
2022-08-05T06:30:17.594Z,21.2
2022-08-05T06:33:00.650Z,21.2
2022-08-05T06:36:08.123Z,21.2
2022-08-05T06:39:00.821Z,21.2
2022-08-05T06:42:00.663Z,21.2
2022-08-05T06:45:00.633Z,21.2
2022-08-05T06:48:53.512Z,21.2
2022-08-05T06:51:00.627Z,20.7
2022-08-05T06:54:01.686Z,20.7
2022-08-05T06:58:03.653Z,20.7
2022-08-05T07:00:00.861Z,20.6
2022-08-05T07:03:00.711Z,20.6
2022-08-05T07:06:00.707Z,20.6
2022-08-05T07:09:04.628Z,20.4
2022-08-05T07:12:00.937Z,20.4
2022-08-05T07:15:00.841Z,20.4
2022-08-05T07:18:09.672Z,20.4
2022-08-05T07:21:05.612Z,20.4
2022-08-05T07:24:01.492Z,20.4
2022-08-05T07:27:00.639Z,20.4
2022-08-05T07:30:30.944Z,20.2
2022-08-05T07:33:00.648Z,20.2
2022-08-05T07:36:19.600Z,20.2
2022-08-05T07:39:00.782Z,20.1
2022-08-05T07:42:16.194Z,20.1
2022-08-05T07:45:00.659Z,20.1
2022-08-05T07:48:00.677Z,20.1
2022-08-05T07:51:00.614Z,20.3
2022-08-05T07:54:02.056Z,20.3
2022-08-05T07:57:56.289Z,20.3
2022-08-05T08:00:00.797Z,20.4
2022-08-05T08:03:15.892Z,20.4
2022-08-05T08:06:00.641Z,20.6
2022-08-05T08:09:00.713Z,20.6
2022-08-05T08:12:17.114Z,20.6
2022-08-05T08:15:03.402Z,20.9
2022-08-05T08:18:02.958Z,20.9
2022-08-05T08:21:04.133Z,20.9
2022-08-05T08:24:06.177Z,20.9
2022-08-05T08:27:00.654Z,21.4
2022-08-05T08:30:18.932Z,21.4
2022-08-05T08:33:02.836Z,21.4
2022-08-05T08:39:01.866Z,21.4
2022-08-05T08:42:02.555Z,21.9
2022-08-05T08:45:26.868Z,21.9
2022-08-05T08:48:12.990Z,21.9
2022-08-05T08:52:01.785Z,21.9
2022-08-05T08:54:00.719Z,21.9
2022-08-05T08:57:00.679Z,21.9
2022-08-05T09:00:00.753Z,22.3
2022-08-05T09:03:00.653Z,22.3
2022-08-05T09:06:11.492Z,22.4
2022-08-05T09:09:01.884Z,22.4
2022-08-05T09:12:15.455Z,22.7
2022-08-05T09:15:06.491Z,22.7
2022-08-05T09:18:00.712Z,22.7
2022-08-05T09:21:00.683Z,22.7
2022-08-05T09:24:02.599Z,22.7
2022-08-05T09:27:00.642Z,22.7
2022-08-05T09:30:06.518Z,22.7
2022-08-05T09:33:00.637Z,22.7
2022-08-05T09:36:11.632Z,22.7
2022-08-05T09:39:00.742Z,22.7
2022-08-05T09:42:00.688Z,22.7
2022-08-05T09:46:05.651Z,22.7
2022-08-05T09:48:00.717Z,22.7
2022-08-05T09:51:00.688Z,22.7
2022-08-05T09:54:00.776Z,23.2
2022-08-05T09:57:02.002Z,23.2
2022-08-05T10:00:07.699Z,23.2
2022-08-05T10:03:00.686Z,23.2
2022-08-05T10:06:07.602Z,23.2
2022-08-05T10:09:00.710Z,23.2
2022-08-05T10:12:07.293Z,22.9
2022-08-05T10:15:01.625Z,22.9
2022-08-05T10:18:00.672Z,22.9
2022-08-05T10:21:08.619Z,22.9
2022-08-05T10:24:05.170Z,22.9
2022-08-05T10:27:01.451Z,22.9
2022-08-05T10:32:03.064Z,22.9
2022-08-05T10:33:02.872Z,22.4
2022-08-05T10:36:00.642Z,22.4
2022-08-05T10:39:00.763Z,22.4
2022-08-05T10:42:01.436Z,22.4
2022-08-05T10:45:00.650Z,21.9
2022-08-05T10:48:34.437Z,21.9
2022-08-05T10:51:00.738Z,21.9
2022-08-05T10:54:01.742Z,21.4
2022-08-05T10:57:00.666Z,21.4
2022-08-05T11:00:08.469Z,21.4
2022-08-05T11:03:26.590Z,21.4
2022-08-05T11:06:00.753Z,21.4
2022-08-05T11:09:00.742Z,21.1
2022-08-05T11:12:00.648Z,21.1
2022-08-05T11:15:19.062Z,21.1
2022-08-05T11:18:04.118Z,21.1
2022-08-05T11:21:00.680Z,21.1
2022-08-05T11:24:14.526Z,21.1
2022-08-05T11:27:00.672Z,21.1
2022-08-05T11:30:00.692Z,21.2
2022-08-05T11:33:00.695Z,21.2
2022-08-05T11:36:08.811Z,21.2
2022-08-05T11:39:00.866Z,21.2
2022-08-05T11:42:04.773Z,21.1
2022-08-05T11:45:00.603Z,21.1
2022-08-05T11:48:00.669Z,21.1
2022-08-05T11:51:00.667Z,21.1
2022-08-05T11:54:00.664Z,21.1
2022-08-05T11:57:00.650Z,20.9
2022-08-05T12:00:00.794Z,20.9
2022-08-05T12:03:00.730Z,20.9
2022-08-05T12:06:00.691Z,20.9
2022-08-05T12:09:00.634Z,20.9
2022-08-05T12:12:00.699Z,20.9
2022-08-05T12:15:00.669Z,20.9
2022-08-05T12:18:11.925Z,20.9
2022-08-05T12:21:00.642Z,20.4
2022-08-05T12:24:05.519Z,20.4
2022-08-05T12:27:00.737Z,20.3
2022-08-05T12:30:00.732Z,20.3
2022-08-05T12:33:27.123Z,20.1
2022-08-05T12:36:00.778Z,20.1
2022-08-05T12:39:00.758Z,20.1
2022-08-05T12:42:00.659Z,19.6
2022-08-05T12:45:00.654Z,19.6
2022-08-05T12:48:17.126Z,19.6
2022-08-05T12:51:00.647Z,19.6
2022-08-05T12:54:00.694Z,19.5
2022-08-05T12:57:00.667Z,19.5
2022-08-05T13:03:00.917Z,19.5
2022-08-05T13:06:01.321Z,19.3
2022-08-05T13:09:00.656Z,19.3
2022-08-05T13:12:03.634Z,19.3
2022-08-05T13:15:07.500Z,19.3
2022-08-05T13:18:00.751Z,19.3
2022-08-05T13:21:00.720Z,19.2
2022-08-05T13:24:00.673Z,19.2
2022-08-05T13:27:00.634Z,19.2
2022-08-05T13:30:36.968Z,19.2
2022-08-05T13:33:02.201Z,19.2
2022-08-05T13:36:02.156Z,19.2
2022-08-05T13:39:00.772Z,19.2
2022-08-05T13:42:00.677Z,19.2
2022-08-05T13:45:00.660Z,19.2
2022-08-05T13:48:56.901Z,19.2
2022-08-05T13:51:00.680Z,19.2
2022-08-05T13:54:00.688Z,19.2
2022-08-05T13:57:00.665Z,19.2
2022-08-05T14:00:02.251Z,19.2
2022-08-05T14:03:01.474Z,19.2
2022-08-05T14:06:25.584Z,19.2
2022-08-05T14:09:00.743Z,19.2
2022-08-05T14:12:18.383Z,19.2
2022-08-05T14:15:00.703Z,19.1
2022-08-05T14:18:01.048Z,19.1
2022-08-05T14:21:00.681Z,19.1
2022-08-05T14:24:00.941Z,19.1
2022-08-05T14:27:17.361Z,19.1
2022-08-05T14:30:00.741Z,19.1
2022-08-05T14:33:00.663Z,19.1
2022-08-05T14:36:00.702Z,19.1
2022-08-05T14:39:03.016Z,19.1
2022-08-05T14:42:21.453Z,19.1
2022-08-05T14:45:00.647Z,19.1
2022-08-05T14:48:08.540Z,19.3
2022-08-05T14:51:00.684Z,19.3
2022-08-05T14:54:29.796Z,19.3
2022-08-05T14:57:00.695Z,19.3
2022-08-05T15:00:00.687Z,19.3
2022-08-05T15:03:00.670Z,19.3
2022-08-05T15:06:15.129Z,19.3
2022-08-05T15:09:03.970Z,19.3
2022-08-05T15:12:00.661Z,19.3
2022-08-05T15:15:00.645Z,19.3
2022-08-05T15:18:05.778Z,19.3
2022-08-05T15:21:08.110Z,19.7
2022-08-05T15:24:00.659Z,19.7
2022-08-05T15:27:01.133Z,19.7
2022-08-05T15:30:00.692Z,19.7
2022-08-05T15:33:00.700Z,19.7
2022-08-05T15:36:03.899Z,19.7
2022-08-05T15:42:00.906Z,19.8
2022-08-05T15:45:00.647Z,19.8
2022-08-05T15:48:00.691Z,19.8
2022-08-05T15:51:05.807Z,19.8
2022-08-05T15:54:01.037Z,19.8
2022-08-05T15:57:00.665Z,19.8
2022-08-05T16:00:02.686Z,19.8
2022-08-05T16:03:00.924Z,19.8
2022-08-05T16:06:00.781Z,19.8
2022-08-05T16:09:00.689Z,19.8
2022-08-05T16:12:00.727Z,19.8
2022-08-05T16:15:00.628Z,19.9
2022-08-05T16:18:00.680Z,19.9
2022-08-05T16:21:04.730Z,19.9
2022-08-05T16:24:03.835Z,19.9
2022-08-05T16:27:00.748Z,19.9
2022-08-05T16:30:00.774Z,19.9
2022-08-05T16:33:00.715Z,19.9
2022-08-05T16:36:00.690Z,19.9
2022-08-05T16:39:02.217Z,20
2022-08-05T16:42:17.705Z,20
2022-08-05T16:45:00.677Z,20
2022-08-05T16:48:03.218Z,20
2022-08-05T16:51:00.638Z,20
2022-08-05T16:54:11.341Z,20
2022-08-05T16:57:00.720Z,20
2022-08-05T17:00:08.638Z,20
2022-08-05T17:03:00.732Z,20
2022-08-05T17:06:00.710Z,20
2022-08-05T17:09:00.887Z,20
2022-08-05T17:12:00.673Z,20
2022-08-05T17:15:00.686Z,20
2022-08-05T17:18:00.714Z,20
2022-08-05T17:21:00.646Z,20
2022-08-05T17:24:08.207Z,20.3
2022-08-05T17:27:00.651Z,20.3
2022-08-05T17:30:02.861Z,20.3
2022-08-05T17:33:00.703Z,20.3
2022-08-05T17:36:32.659Z,20.3
2022-08-05T17:39:00.691Z,20.3
2022-08-05T17:42:21.335Z,20.3
2022-08-05T17:45:00.654Z,20.3
2022-08-05T17:48:00.715Z,20.3
2022-08-05T17:51:00.674Z,20.3
2022-08-05T17:54:00.599Z,20.3
2022-08-05T17:57:00.617Z,20.3
2022-08-05T18:00:06.038Z,20.3
2022-08-05T18:03:00.673Z,20.3
2022-08-05T18:06:02.120Z,20.3
2022-08-05T18:09:03.987Z,20.3
2022-08-05T18:12:00.701Z,20.3
2022-08-05T18:15:00.649Z,20.3
2022-08-05T18:18:09.194Z,20.1
2022-08-05T18:21:00.638Z,20.1
2022-08-05T18:24:00.689Z,20.2
2022-08-05T18:27:00.754Z,20.2
2022-08-05T18:30:00.679Z,20.2
2022-08-05T18:33:01.470Z,20.2
2022-08-05T18:36:10.519Z,20.2
2022-08-05T18:39:00.774Z,20.2
2022-08-05T18:42:10.606Z,20.2
2022-08-05T18:45:00.671Z,20.2
2022-08-05T18:48:00.661Z,20.2
2022-08-05T18:54:00.690Z,20.2
2022-08-05T18:57:01.519Z,20.2
2022-08-05T19:00:07.670Z,20.2
2022-08-05T19:03:04.676Z,20.1
2022-08-05T19:06:19.404Z,20.1
2022-08-05T19:09:01.609Z,20.1
2022-08-05T19:12:01.797Z,20.1
2022-08-05T19:15:03.020Z,19.9
2022-08-05T19:18:13.464Z,19.9
2022-08-05T19:21:00.630Z,19.9
2022-08-05T19:24:08.855Z,19.9
2022-08-05T19:27:00.678Z,19.5
2022-08-05T19:30:00.687Z,19.5
2022-08-05T19:33:00.693Z,19.5
2022-08-05T19:36:00.664Z,19.5
2022-08-05T19:39:02.035Z,19.1
2022-08-05T19:42:07.859Z,19.1
2022-08-05T19:45:01.592Z,19.1
2022-08-05T19:48:00.681Z,18.8
2022-08-05T19:51:00.818Z,18.8
2022-08-05T19:54:06.028Z,18.8
2022-08-05T19:57:02.637Z,18.8
2022-08-05T20:00:04.712Z,18.8
2022-08-05T20:03:00.714Z,18.8
2022-08-05T20:06:00.653Z,18.8
2022-08-05T20:09:14.435Z,18.3
2022-08-05T20:12:00.682Z,18.2
2022-08-05T20:15:00.621Z,18.2
2022-08-05T20:18:00.676Z,18.2
2022-08-05T20:21:00.627Z,18
2022-08-05T20:24:00.703Z,18
2022-08-05T20:27:00.774Z,18
2022-08-05T20:30:00.634Z,18
2022-08-05T20:33:00.665Z,18
2022-08-05T20:36:00.627Z,18
2022-08-05T20:39:00.822Z,17.6
2022-08-05T20:42:00.715Z,17.6
2022-08-05T20:45:01.075Z,17.6
2022-08-05T20:48:00.662Z,17.6
2022-08-05T20:51:00.616Z,17.6
2022-08-05T20:54:01.504Z,17.6
2022-08-05T20:57:00.652Z,17.2
2022-08-05T21:00:40.558Z,17.2
2022-08-05T21:03:01.712Z,17.2
2022-08-05T21:06:00.641Z,17.2
2022-08-05T21:09:00.622Z,17.2
2022-08-05T21:12:11.728Z,16.8
2022-08-05T21:15:00.655Z,16.8
2022-08-05T21:18:00.638Z,16.7
2022-08-05T21:21:00.616Z,16.7
2022-08-05T21:24:00.638Z,16.7
2022-08-05T21:27:00.621Z,16.7
2022-08-05T21:30:02.193Z,16.7
2022-08-05T21:33:02.046Z,16.7
2022-08-05T21:36:00.676Z,16.7
2022-08-05T21:39:00.843Z,16.7
2022-08-05T21:42:02.412Z,16.7
2022-08-05T21:45:00.786Z,16.7
2022-08-05T21:48:00.665Z,16.7
2022-08-05T21:51:00.592Z,16.2
2022-08-05T21:54:04.165Z,16.2
2022-08-05T21:57:32.202Z,16.2
2022-08-05T22:00:07.069Z,16.2
2022-08-05T22:03:00.619Z,16.2
2022-08-05T22:06:00.626Z,16
2022-08-05T22:09:00.682Z,16
2022-08-05T22:12:00.994Z,15.9
2022-08-05T22:15:00.797Z,15.9
2022-08-05T22:18:00.682Z,15.9
2022-08-05T22:21:00.607Z,15.9
2022-08-05T22:24:09.259Z,15.9
2022-08-05T22:27:00.598Z,15.9
2022-08-05T22:30:00.721Z,15.9
2022-08-05T22:33:00.595Z,15.9
2022-08-05T22:36:00.679Z,15.9
2022-08-05T22:39:09.818Z,15.5
2022-08-05T22:42:12.930Z,15.5
2022-08-05T22:45:00.681Z,15.5
2022-08-05T22:48:00.618Z,15.5
2022-08-05T22:51:00.634Z,15.5
2022-08-05T22:54:00.609Z,15.5
2022-08-05T22:57:00.678Z,15.5
2022-08-05T23:00:00.679Z,15.5
2022-08-05T23:03:00.817Z,15.2
2022-08-05T23:06:01.119Z,15.2
2022-08-05T23:09:53.177Z,15.2
2022-08-05T23:12:00.675Z,15.2
2022-08-05T23:15:01.321Z,15.2
2022-08-05T23:18:05.811Z,15.2
2022-08-05T23:21:00.788Z,15.2
2022-08-05T23:24:00.598Z,15.2
2022-08-05T23:27:00.734Z,15.2
2022-08-05T23:30:00.630Z,15.2
2022-08-05T23:33:00.609Z,15.2
2022-08-05T23:36:00.614Z,15.2
2022-08-05T23:39:00.714Z,15.2
2022-08-05T23:42:00.646Z,15.2
2022-08-05T23:45:00.606Z,15.2
2022-08-05T23:48:04.608Z,14.7
2022-08-05T23:51:00.612Z,14.7
2022-08-05T23:54:01.439Z,14.6
2022-08-05T23:57:04.670Z,14.6
